sensor_id;sensor_type;location;lat;lon;timestamp;P1;durP1;ratioP1;P2;durP2;ratioP2
12129;SDS011;6128;59.340;18.040;2023-07-30T00:00:42;1.83;;;1.70;;
12129;SDS011;6128;59.340;18.040;2023-07-30T00:03:10;2.30;;;1.90;;
12129;SDS011;6128;59.340;18.040;2023-07-30T00:05:37;2.40;;;2.07;;
12129;SDS011;6128;59.340;18.040;2023-07-30T00:08:04;1.87;;;1.70;;
12129;SDS011;6128;59.340;18.040;2023-07-30T00:10:31;2.13;;;1.93;;
12129;SDS011;6128;59.340;18.040;2023-07-30T00:12:59;2.53;;;1.70;;
12129;SDS011;6128;59.340;18.040;2023-07-30T00:15:26;2.80;;;1.97;;
12129;SDS011;6128;59.340;18.040;2023-07-30T00:17:53;2.37;;;1.90;;
12129;SDS011;6128;59.340;18.040;2023-07-30T00:20:21;2.30;;;1.70;;
12129;SDS011;6128;59.340;18.040;2023-07-30T00:22:48;3.13;;;1.87;;
12129;SDS011;6128;59.340;18.040;2023-07-30T00:25:16;3.50;;;1.93;;
12129;SDS011;6128;59.340;18.040;2023-07-30T00:27:42;2.47;;;1.93;;
12129;SDS011;6128;59.340;18.040;2023-07-30T00:30:09;2.37;;;2.00;;
12129;SDS011;6128;59.340;18.040;2023-07-30T00:32:37;1.73;;;1.57;;
12129;SDS011;6128;59.340;18.040;2023-07-30T00:35:08;2.63;;;1.67;;
12129;SDS011;6128;59.340;18.040;2023-07-30T00:37:37;1.87;;;1.67;;
12129;SDS011;6128;59.340;18.040;2023-07-30T00:40:04;1.90;;;1.80;;
12129;SDS011;6128;59.340;18.040;2023-07-30T00:42:32;2.87;;;1.80;;
12129;SDS011;6128;59.340;18.040;2023-07-30T00:44:59;2.67;;;1.97;;
12129;SDS011;6128;59.340;18.040;2023-07-30T00:47:28;2.20;;;1.70;;
12129;SDS011;6128;59.340;18.040;2023-07-30T00:49:55;3.00;;;2.03;;
12129;SDS011;6128;59.340;18.040;2023-07-30T00:52:23;3.67;;;1.80;;
12129;SDS011;6128;59.340;18.040;2023-07-30T00:54:52;2.47;;;1.67;;
12129;SDS011;6128;59.340;18.040;2023-07-30T00:57:21;3.23;;;1.83;;
12129;SDS011;6128;59.340;18.040;2023-07-30T00:59:49;1.67;;;1.57;;
12129;SDS011;6128;59.340;18.040;2023-07-30T01:02:17;2.13;;;1.87;;
12129;SDS011;6128;59.340;18.040;2023-07-30T01:04:44;1.73;;;1.57;;
12129;SDS011;6128;59.340;18.040;2023-07-30T01:07:12;1.63;;;1.53;;
12129;SDS011;6128;59.340;18.040;2023-07-30T01:09:39;2.80;;;1.57;;
12129;SDS011;6128;59.340;18.040;2023-07-30T01:12:08;3.83;;;1.73;;
12129;SDS011;6128;59.340;18.040;2023-07-30T01:14:35;2.03;;;1.60;;
12129;SDS011;6128;59.340;18.040;2023-07-30T01:17:04;1.93;;;1.47;;
12129;SDS011;6128;59.340;18.040;2023-07-30T01:19:31;2.47;;;1.93;;
12129;SDS011;6128;59.340;18.040;2023-07-30T01:22:00;2.57;;;2.00;;
12129;SDS011;6128;59.340;18.040;2023-07-30T01:24:27;2.50;;;1.60;;
12129;SDS011;6128;59.340;18.040;2023-07-30T01:26:55;2.13;;;1.70;;
12129;SDS011;6128;59.340;18.040;2023-07-30T01:29:27;2.47;;;1.80;;
12129;SDS011;6128;59.340;18.040;2023-07-30T01:32:00;2.83;;;1.87;;
12129;SDS011;6128;59.340;18.040;2023-07-30T01:34:31;3.00;;;1.70;;
12129;SDS011;6128;59.340;18.040;2023-07-30T01:37:02;1.80;;;1.70;;
12129;SDS011;6128;59.340;18.040;2023-07-30T01:39:31;2.47;;;1.97;;
12129;SDS011;6128;59.340;18.040;2023-07-30T01:42:00;2.03;;;1.90;;
12129;SDS011;6128;59.340;18.040;2023-07-30T01:44:27;2.50;;;1.90;;
12129;SDS011;6128;59.340;18.040;2023-07-30T01:46:54;4.27;;;2.20;;
12129;SDS011;6128;59.340;18.040;2023-07-30T01:49:22;2.63;;;1.73;;
12129;SDS011;6128;59.340;18.040;2023-07-30T01:51:49;2.53;;;1.80;;
12129;SDS011;6128;59.340;18.040;2023-07-30T01:54:17;1.70;;;1.60;;
12129;SDS011;6128;59.340;18.040;2023-07-30T01:56:45;2.63;;;1.70;;
12129;SDS011;6128;59.340;18.040;2023-07-30T01:59:12;1.77;;;1.67;;
12129;SDS011;6128;59.340;18.040;2023-07-30T02:01:39;2.40;;;2.20;;
12129;SDS011;6128;59.340;18.040;2023-07-30T02:04:07;2.37;;;2.10;;
12129;SDS011;6128;59.340;18.040;2023-07-30T02:06:34;2.37;;;2.17;;
12129;SDS011;6128;59.340;18.040;2023-07-30T02:09:04;2.53;;;2.17;;
12129;SDS011;6128;59.340;18.040;2023-07-30T02:11:32;3.20;;;2.07;;
12129;SDS011;6128;59.340;18.040;2023-07-30T02:13:59;2.53;;;2.10;;
12129;SDS011;6128;59.340;18.040;2023-07-30T02:16:29;2.43;;;2.17;;
12129;SDS011;6128;59.340;18.040;2023-07-30T02:18:56;2.33;;;2.13;;
12129;SDS011;6128;59.340;18.040;2023-07-30T02:21:24;2.93;;;2.50;;
12129;SDS011;6128;59.340;18.040;2023-07-30T02:23:51;2.73;;;2.20;;
12129;SDS011;6128;59.340;18.040;2023-07-30T02:26:18;2.27;;;2.07;;
12129;SDS011;6128;59.340;18.040;2023-07-30T02:28:46;2.37;;;2.17;;
12129;SDS011;6128;59.340;18.040;2023-07-30T02:31:13;3.63;;;2.53;;
12129;SDS011;6128;59.340;18.040;2023-07-30T02:33:40;2.47;;;1.97;;
12129;SDS011;6128;59.340;18.040;2023-07-30T02:36:08;2.17;;;1.90;;
12129;SDS011;6128;59.340;18.040;2023-07-30T02:38:35;2.33;;;2.13;;
12129;SDS011;6128;59.340;18.040;2023-07-30T02:41:02;2.93;;;2.63;;
12129;SDS011;6128;59.340;18.040;2023-07-30T02:43:29;2.17;;;1.97;;
12129;SDS011;6128;59.340;18.040;2023-07-30T02:45:58;3.30;;;2.40;;
12129;SDS011;6128;59.340;18.040;2023-07-30T02:48:25;3.83;;;2.40;;
12129;SDS011;6128;59.340;18.040;2023-07-30T02:50:52;2.87;;;2.20;;
12129;SDS011;6128;59.340;18.040;2023-07-30T02:53:19;3.33;;;2.10;;
12129;SDS011;6128;59.340;18.040;2023-07-30T02:55:46;3.13;;;2.40;;
12129;SDS011;6128;59.340;18.040;2023-07-30T02:58:13;2.57;;;2.37;;
12129;SDS011;6128;59.340;18.040;2023-07-30T03:00:41;2.47;;;2.10;;
12129;SDS011;6128;59.340;18.040;2023-07-30T03:03:09;2.47;;;2.20;;
12129;SDS011;6128;59.340;18.040;2023-07-30T03:05:36;2.23;;;2.00;;
12129;SDS011;6128;59.340;18.040;2023-07-30T03:08:03;2.60;;;2.40;;
12129;SDS011;6128;59.340;18.040;2023-07-30T03:10:31;2.57;;;2.30;;
12129;SDS011;6128;59.340;18.040;2023-07-30T03:12:58;3.10;;;2.20;;
12129;SDS011;6128;59.340;18.040;2023-07-30T03:15:26;2.53;;;2.30;;
12129;SDS011;6128;59.340;18.040;2023-07-30T03:17:53;2.63;;;2.30;;
12129;SDS011;6128;59.340;18.040;2023-07-30T03:20:22;3.30;;;2.40;;
12129;SDS011;6128;59.340;18.040;2023-07-30T03:22:49;3.83;;;2.33;;
12129;SDS011;6128;59.340;18.040;2023-07-30T03:25:17;2.40;;;2.10;;
12129;SDS011;6128;59.340;18.040;2023-07-30T03:27:44;4.63;;;2.00;;
12129;SDS011;6128;59.340;18.040;2023-07-30T03:30:11;3.07;;;2.27;;
12129;SDS011;6128;59.340;18.040;2023-07-30T03:32:39;4.13;;;2.20;;
12129;SDS011;6128;59.340;18.040;2023-07-30T03:35:06;2.60;;;2.40;;
12129;SDS011;6128;59.340;18.040;2023-07-30T03:37:35;4.00;;;2.50;;
12129;SDS011;6128;59.340;18.040;2023-07-30T03:40:03;3.97;;;2.20;;
12129;SDS011;6128;59.340;18.040;2023-07-30T03:42:31;2.57;;;2.13;;
12129;SDS011;6128;59.340;18.040;2023-07-30T03:44:58;2.93;;;2.40;;
12129;SDS011;6128;59.340;18.040;2023-07-30T03:47:25;2.60;;;2.40;;
12129;SDS011;6128;59.340;18.040;2023-07-30T03:49:52;3.33;;;2.40;;
12129;SDS011;6128;59.340;18.040;2023-07-30T03:52:19;2.60;;;2.40;;
12129;SDS011;6128;59.340;18.040;2023-07-30T03:54:48;2.47;;;2.10;;
12129;SDS011;6128;59.340;18.040;2023-07-30T03:57:15;2.30;;;2.10;;
12129;SDS011;6128;59.340;18.040;2023-07-30T03:59:42;3.07;;;2.60;;
12129;SDS011;6128;59.340;18.040;2023-07-30T04:02:29;3.37;;;2.23;;
12129;SDS011;6128;59.340;18.040;2023-07-30T04:04:56;3.47;;;3.00;;
12129;SDS011;6128;59.340;18.040;2023-07-30T04:07:23;2.87;;;2.57;;
12129;SDS011;6128;59.340;18.040;2023-07-30T04:09:51;3.13;;;2.67;;
12129;SDS011;6128;59.340;18.040;2023-07-30T04:12:19;2.57;;;2.20;;
12129;SDS011;6128;59.340;18.040;2023-07-30T04:14:46;2.37;;;2.17;;
12129;SDS011;6128;59.340;18.040;2023-07-30T04:17:13;2.67;;;2.40;;
12129;SDS011;6128;59.340;18.040;2023-07-30T04:19:40;3.20;;;2.47;;
12129;SDS011;6128;59.340;18.040;2023-07-30T04:22:08;2.67;;;2.47;;
12129;SDS011;6128;59.340;18.040;2023-07-30T04:24:35;3.20;;;2.53;;
12129;SDS011;6128;59.340;18.040;2023-07-30T04:27:04;3.17;;;2.40;;
12129;SDS011;6128;59.340;18.040;2023-07-30T04:29:31;3.37;;;2.47;;
12129;SDS011;6128;59.340;18.040;2023-07-30T04:31:58;4.67;;;2.70;;
12129;SDS011;6128;59.340;18.040;2023-07-30T04:34:26;3.80;;;2.10;;
12129;SDS011;6128;59.340;18.040;2023-07-30T04:36:53;3.03;;;2.67;;
12129;SDS011;6128;59.340;18.040;2023-07-30T04:39:20;2.83;;;2.40;;
12129;SDS011;6128;59.340;18.040;2023-07-30T04:41:47;2.87;;;2.57;;
12129;SDS011;6128;59.340;18.040;2023-07-30T04:44:15;3.43;;;2.70;;
12129;SDS011;6128;59.340;18.040;2023-07-30T04:46:42;2.80;;;1.97;;
12129;SDS011;6128;59.340;18.040;2023-07-30T04:49:10;2.43;;;2.23;;
12129;SDS011;6128;59.340;18.040;2023-07-30T04:51:37;3.67;;;2.93;;
12129;SDS011;6128;59.340;18.040;2023-07-30T04:54:04;2.67;;;2.47;;
12129;SDS011;6128;59.340;18.040;2023-07-30T04:56:31;3.03;;;2.60;;
12129;SDS011;6128;59.340;18.040;2023-07-30T04:58:59;3.30;;;2.60;;
12129;SDS011;6128;59.340;18.040;2023-07-30T05:01:28;3.83;;;3.07;;
12129;SDS011;6128;59.340;18.040;2023-07-30T05:03:56;3.23;;;2.60;;
12129;SDS011;6128;59.340;18.040;2023-07-30T05:06:23;2.87;;;2.63;;
12129;SDS011;6128;59.340;18.040;2023-07-30T05:08:50;3.13;;;2.83;;
12129;SDS011;6128;59.340;18.040;2023-07-30T05:11:17;3.67;;;2.80;;
12129;SDS011;6128;59.340;18.040;2023-07-30T05:13:44;3.20;;;2.90;;
12129;SDS011;6128;59.340;18.040;2023-07-30T05:16:11;2.97;;;2.57;;
12129;SDS011;6128;59.340;18.040;2023-07-30T05:18:40;3.03;;;2.53;;
12129;SDS011;6128;59.340;18.040;2023-07-30T05:21:07;5.27;;;2.90;;
12129;SDS011;6128;59.340;18.040;2023-07-30T05:23:34;3.00;;;2.70;;
12129;SDS011;6128;59.340;18.040;2023-07-30T05:26:01;3.70;;;3.10;;
12129;SDS011;6128;59.340;18.040;2023-07-30T05:28:29;3.43;;;3.00;;
12129;SDS011;6128;59.340;18.040;2023-07-30T05:30:58;4.47;;;3.13;;
12129;SDS011;6128;59.340;18.040;2023-07-30T05:33:25;3.83;;;2.60;;
12129;SDS011;6128;59.340;18.040;2023-07-30T05:35:54;2.50;;;2.30;;
12129;SDS011;6128;59.340;18.040;2023-07-30T05:38:21;3.00;;;2.53;;
12129;SDS011;6128;59.340;18.040;2023-07-30T05:40:48;3.33;;;2.40;;
12129;SDS011;6128;59.340;18.040;2023-07-30T05:43:15;3.63;;;2.70;;
12129;SDS011;6128;59.340;18.040;2023-07-30T05:45:42;3.60;;;2.80;;
12129;SDS011;6128;59.340;18.040;2023-07-30T05:48:11;3.03;;;2.60;;
12129;SDS011;6128;59.340;18.040;2023-07-30T05:50:38;4.37;;;2.70;;
12129;SDS011;6128;59.340;18.040;2023-07-30T05:53:06;3.93;;;2.73;;
12129;SDS011;6128;59.340;18.040;2023-07-30T05:55:34;3.10;;;2.60;;
12129;SDS011;6128;59.340;18.040;2023-07-30T05:58:01;2.43;;;2.23;;
12129;SDS011;6128;59.340;18.040;2023-07-30T06:00:28;4.27;;;2.80;;
12129;SDS011;6128;59.340;18.040;2023-07-30T06:02:56;3.40;;;2.60;;
12129;SDS011;6128;59.340;18.040;2023-07-30T06:05:23;3.20;;;2.53;;
12129;SDS011;6128;59.340;18.040;2023-07-30T06:07:50;2.55;;;2.30;;
12129;SDS011;6128;59.340;18.040;2023-07-30T06:10:18;3.30;;;2.30;;
12129;SDS011;6128;59.340;18.040;2023-07-30T06:12:46;3.30;;;2.60;;
12129;SDS011;6128;59.340;18.040;2023-07-30T06:15:13;2.97;;;2.60;;
12129;SDS011;6128;59.340;18.040;2023-07-30T06:17:40;2.80;;;2.43;;
12129;SDS011;6128;59.340;18.040;2023-07-30T06:20:08;3.15;;;2.80;;
12129;SDS011;6128;59.340;18.040;2023-07-30T06:22:35;3.17;;;2.83;;
12129;SDS011;6128;59.340;18.040;2023-07-30T06:25:03;2.97;;;2.53;;
12129;SDS011;6128;59.340;18.040;2023-07-30T06:27:33;3.93;;;2.67;;
12129;SDS011;6128;59.340;18.040;2023-07-30T06:30:00;4.13;;;2.87;;
12129;SDS011;6128;59.340;18.040;2023-07-30T06:32:27;4.40;;;2.90;;
12129;SDS011;6128;59.340;18.040;2023-07-30T06:34:55;3.43;;;2.83;;
12129;SDS011;6128;59.340;18.040;2023-07-30T06:37:32;2.83;;;2.57;;
12129;SDS011;6128;59.340;18.040;2023-07-30T06:39:59;3.30;;;2.50;;
12129;SDS011;6128;59.340;18.040;2023-07-30T06:42:29;3.83;;;2.80;;
12129;SDS011;6128;59.340;18.040;2023-07-30T06:44:57;2.97;;;2.70;;
12129;SDS011;6128;59.340;18.040;2023-07-30T06:47:24;3.70;;;2.60;;
12129;SDS011;6128;59.340;18.040;2023-07-30T06:49:51;2.50;;;2.30;;
12129;SDS011;6128;59.340;18.040;2023-07-30T06:52:18;3.30;;;3.00;;
12129;SDS011;6128;59.340;18.040;2023-07-30T06:54:47;3.00;;;2.70;;
12129;SDS011;6128;59.340;18.040;2023-07-30T06:57:14;3.60;;;2.83;;
12129;SDS011;6128;59.340;18.040;2023-07-30T06:59:42;3.00;;;2.70;;
12129;SDS011;6128;59.340;18.040;2023-07-30T07:02:13;3.13;;;2.83;;
12129;SDS011;6128;59.340;18.040;2023-07-30T07:04:41;3.23;;;3.00;;
12129;SDS011;6128;59.340;18.040;2023-07-30T07:07:09;3.03;;;2.83;;
12129;SDS011;6128;59.340;18.040;2023-07-30T07:09:36;2.97;;;2.70;;
12129;SDS011;6128;59.340;18.040;2023-07-30T07:12:04;3.43;;;3.17;;
12129;SDS011;6128;59.340;18.040;2023-07-30T07:14:31;3.20;;;2.73;;
12129;SDS011;6128;59.340;18.040;2023-07-30T07:16:58;3.00;;;2.70;;
12129;SDS011;6128;59.340;18.040;2023-07-30T07:19:27;2.90;;;2.63;;
12129;SDS011;6128;59.340;18.040;2023-07-30T07:21:54;2.70;;;2.50;;
12129;SDS011;6128;59.340;18.040;2023-07-30T07:24:21;2.83;;;2.63;;
12129;SDS011;6128;59.340;18.040;2023-07-30T07:26:48;3.57;;;3.27;;
12129;SDS011;6128;59.340;18.040;2023-07-30T07:29:15;4.20;;;3.07;;
12129;SDS011;6128;59.340;18.040;2023-07-30T07:31:42;4.07;;;3.53;;
12129;SDS011;6128;59.340;18.040;2023-07-30T07:34:11;3.73;;;3.30;;
12129;SDS011;6128;59.340;18.040;2023-07-30T07:36:40;3.20;;;2.90;;
12129;SDS011;6128;59.340;18.040;2023-07-30T07:39:07;5.63;;;3.20;;
12129;SDS011;6128;59.340;18.040;2023-07-30T07:41:34;3.77;;;3.47;;
12129;SDS011;6128;59.340;18.040;2023-07-30T07:44:01;3.43;;;2.70;;
12129;SDS011;6128;59.340;18.040;2023-07-30T07:46:28;3.42;;;2.90;;
12129;SDS011;6128;59.340;18.040;2023-07-30T07:48:55;3.10;;;2.80;;
12129;SDS011;6128;59.340;18.040;2023-07-30T07:51:22;3.17;;;2.87;;
12129;SDS011;6128;59.340;18.040;2023-07-30T07:53:51;3.10;;;2.80;;
12129;SDS011;6128;59.340;18.040;2023-07-30T07:56:18;3.63;;;2.60;;
12129;SDS011;6128;59.340;18.040;2023-07-30T07:58:45;3.43;;;2.97;;
12129;SDS011;6128;59.340;18.040;2023-07-30T08:01:12;3.10;;;2.78;;
12129;SDS011;6128;59.340;18.040;2023-07-30T08:03:39;3.22;;;2.92;;
12129;SDS011;6128;59.340;18.040;2023-07-30T08:06:06;3.47;;;2.97;;
12129;SDS011;6128;59.340;18.040;2023-07-30T08:08:34;3.42;;;3.13;;
12129;SDS011;6128;59.340;18.040;2023-07-30T08:11:06;3.13;;;2.70;;
12129;SDS011;6128;59.340;18.040;2023-07-30T08:13:33;3.65;;;2.60;;
12129;SDS011;6128;59.340;18.040;2023-07-30T08:16:01;3.50;;;2.63;;
12129;SDS011;6128;59.340;18.040;2023-07-30T08:18:28;3.05;;;2.47;;
12129;SDS011;6128;59.340;18.040;2023-07-30T08:20:55;3.40;;;2.58;;
12129;SDS011;6128;59.340;18.040;2023-07-30T08:23:22;3.95;;;2.30;;
12129;SDS011;6128;59.340;18.040;2023-07-30T08:25:49;3.13;;;2.45;;
12129;SDS011;6128;59.340;18.040;2023-07-30T08:28:18;2.58;;;2.30;;
12129;SDS011;6128;59.340;18.040;2023-07-30T08:30:45;3.75;;;2.42;;
12129;SDS011;6128;59.340;18.040;2023-07-30T08:33:13;2.40;;;2.20;;
12129;SDS011;6128;59.340;18.040;2023-07-30T08:35:40;2.60;;;2.38;;
12129;SDS011;6128;59.340;18.040;2023-07-30T08:38:07;3.65;;;2.30;;
12129;SDS011;6128;59.340;18.040;2023-07-30T08:40:34;3.38;;;2.35;;
12129;SDS011;6128;59.340;18.040;2023-07-30T08:43:02;2.55;;;2.13;;
12129;SDS011;6128;59.340;18.040;2023-07-30T08:45:31;2.00;;;1.88;;
12129;SDS011;6128;59.340;18.040;2023-07-30T08:47:59;2.30;;;2.10;;
12129;SDS011;6128;59.340;18.040;2023-07-30T08:50:26;2.30;;;2.10;;
12129;SDS011;6128;59.340;18.040;2023-07-30T08:52:54;2.80;;;2.15;;
12129;SDS011;6128;59.340;18.040;2023-07-30T08:55:23;2.22;;;2.03;;
12129;SDS011;6128;59.340;18.040;2023-07-30T08:57:52;2.20;;;2.00;;
12129;SDS011;6128;59.340;18.040;2023-07-30T09:00:20;2.67;;;2.25;;
12129;SDS011;6128;59.340;18.040;2023-07-30T09:02:54;2.33;;;2.10;;
12129;SDS011;6128;59.340;18.040;2023-07-30T09:05:25;2.40;;;1.80;;
12129;SDS011;6128;59.340;18.040;2023-07-30T09:07:54;2.00;;;1.90;;
12129;SDS011;6128;59.340;18.040;2023-07-30T09:10:21;1.95;;;1.85;;
12129;SDS011;6128;59.340;18.040;2023-07-30T09:12:51;1.67;;;1.58;;
12129;SDS011;6128;59.340;18.040;2023-07-30T09:15:20;1.75;;;1.65;;
12129;SDS011;6128;59.340;18.040;2023-07-30T09:17:57;1.90;;;1.63;;
12129;SDS011;6128;59.340;18.040;2023-07-30T09:20:24;2.13;;;1.92;;
12129;SDS011;6128;59.340;18.040;2023-07-30T09:22:52;1.63;;;1.48;;
12129;SDS011;6128;59.340;18.040;2023-07-30T09:25:22;2.60;;;2.40;;
12129;SDS011;6128;59.340;18.040;2023-07-30T09:27:49;2.08;;;1.88;;
12129;SDS011;6128;59.340;18.040;2023-07-30T09:30:23;3.00;;;2.00;;
12129;SDS011;6128;59.340;18.040;2023-07-30T09:32:51;1.88;;;1.75;;
12129;SDS011;6128;59.340;18.040;2023-07-30T09:35:20;2.95;;;2.00;;
12129;SDS011;6128;59.340;18.040;2023-07-30T09:37:57;1.67;;;1.58;;
12129;SDS011;6128;59.340;18.040;2023-07-30T09:40:30;1.85;;;1.75;;
12129;SDS011;6128;59.340;18.040;2023-07-30T09:42:58;2.00;;;1.52;;
12129;SDS011;6128;59.340;18.040;2023-07-30T09:45:26;1.58;;;1.42;;
12129;SDS011;6128;59.340;18.040;2023-07-30T09:47:54;1.70;;;1.60;;
12129;SDS011;6128;59.340;18.040;2023-07-30T09:50:24;1.60;;;1.50;;
12129;SDS011;6128;59.340;18.040;2023-07-30T09:52:51;1.98;;;1.88;;
12129;SDS011;6128;59.340;18.040;2023-07-30T09:55:19;1.92;;;1.83;;
12129;SDS011;6128;59.340;18.040;2023-07-30T09:57:46;2.03;;;1.92;;
12129;SDS011;6128;59.340;18.040;2023-07-30T10:00:13;1.80;;;1.52;;
12129;SDS011;6128;59.340;18.040;2023-07-30T10:02:41;1.60;;;1.50;;
12129;SDS011;6128;59.340;18.040;2023-07-30T10:05:14;1.48;;;1.48;;
12129;SDS011;6128;59.340;18.040;2023-07-30T10:07:44;1.50;;;1.40;;
12129;SDS011;6128;59.340;18.040;2023-07-30T10:10:17;1.60;;;1.50;;
12129;SDS011;6128;59.340;18.040;2023-07-30T10:12:48;1.33;;;1.23;;
12129;SDS011;6128;59.340;18.040;2023-07-30T10:15:18;2.15;;;1.38;;
12129;SDS011;6128;59.340;18.040;2023-07-30T10:17:48;1.50;;;1.33;;
12129;SDS011;6128;59.340;18.040;2023-07-30T10:20:20;2.20;;;1.98;;
12129;SDS011;6128;59.340;18.040;2023-07-30T10:22:52;1.48;;;1.33;;
12129;SDS011;6128;59.340;18.040;2023-07-30T10:25:20;1.83;;;1.73;;
12129;SDS011;6128;59.340;18.040;2023-07-30T10:27:50;1.52;;;1.42;;
12129;SDS011;6128;59.340;18.040;2023-07-30T10:30:18;1.50;;;1.40;;
12129;SDS011;6128;59.340;18.040;2023-07-30T10:32:58;1.67;;;1.50;;
12129;SDS011;6128;59.340;18.040;2023-07-30T10:35:35;1.52;;;1.42;;
12129;SDS011;6128;59.340;18.040;2023-07-30T10:38:18;2.22;;;1.50;;
12129;SDS011;6128;59.340;18.040;2023-07-30T10:41:03;1.70;;;1.60;;
12129;SDS011;6128;59.340;18.040;2023-07-30T10:43:34;1.70;;;1.60;;
12129;SDS011;6128;59.340;18.040;2023-07-30T10:46:02;2.00;;;1.80;;
12129;SDS011;6128;59.340;18.040;2023-07-30T10:48:30;1.90;;;1.80;;
12129;SDS011;6128;59.340;18.040;2023-07-30T10:50:59;2.35;;;1.55;;
12129;SDS011;6128;59.340;18.040;2023-07-30T10:53:28;2.10;;;2.00;;
12129;SDS011;6128;59.340;18.040;2023-07-30T10:55:57;1.95;;;1.80;;
12129;SDS011;6128;59.340;18.040;2023-07-30T10:58:27;1.95;;;1.85;;
12129;SDS011;6128;59.340;18.040;2023-07-30T11:00:56;2.10;;;1.90;;
12129;SDS011;6128;59.340;18.040;2023-07-30T11:03:24;2.92;;;1.95;;
12129;SDS011;6128;59.340;18.040;2023-07-30T11:05:52;2.20;;;2.00;;
12129;SDS011;6128;59.340;18.040;2023-07-30T11:08:21;2.10;;;2.00;;
12129;SDS011;6128;59.340;18.040;2023-07-30T11:10:59;2.00;;;1.90;;
12129;SDS011;6128;59.340;18.040;2023-07-30T11:13:27;2.33;;;2.13;;
12129;SDS011;6128;59.340;18.040;2023-07-30T11:15:56;2.15;;;2.05;;
12129;SDS011;6128;59.340;18.040;2023-07-30T11:18:23;2.38;;;2.28;;
12129;SDS011;6128;59.340;18.040;2023-07-30T11:20:51;2.22;;;2.03;;
12129;SDS011;6128;59.340;18.040;2023-07-30T11:23:21;2.20;;;2.10;;
12129;SDS011;6128;59.340;18.040;2023-07-30T11:25:51;2.55;;;1.98;;
12129;SDS011;6128;59.340;18.040;2023-07-30T11:28:30;1.95;;;1.85;;
12129;SDS011;6128;59.340;18.040;2023-07-30T11:30:59;2.20;;;2.00;;
12129;SDS011;6128;59.340;18.040;2023-07-30T11:33:31;2.58;;;2.15;;
12129;SDS011;6128;59.340;18.040;2023-07-30T11:36:00;2.55;;;2.42;;
12129;SDS011;6128;59.340;18.040;2023-07-30T11:38:33;2.35;;;2.25;;
12129;SDS011;6128;59.340;18.040;2023-07-30T11:41:03;2.25;;;2.13;;
12129;SDS011;6128;59.340;18.040;2023-07-30T11:43:30;2.28;;;2.17;;
12129;SDS011;6128;59.340;18.040;2023-07-30T11:46:05;2.53;;;2.42;;
12129;SDS011;6128;59.340;18.040;2023-07-30T11:48:37;2.22;;;2.10;;
12129;SDS011;6128;59.340;18.040;2023-07-30T11:51:05;2.33;;;2.20;;
12129;SDS011;6128;59.340;18.040;2023-07-30T11:56:20;2.90;;;2.70;;
12129;SDS011;6128;59.340;18.040;2023-07-30T11:58:50;2.88;;;2.67;;
12129;SDS011;6128;59.340;18.040;2023-07-30T12:01:20;2.75;;;2.55;;
12129;SDS011;6128;59.340;18.040;2023-07-30T12:03:49;2.70;;;2.50;;
12129;SDS011;6128;59.340;18.040;2023-07-30T12:06:16;2.78;;;2.65;;
12129;SDS011;6128;59.340;18.040;2023-07-30T12:08:43;3.10;;;2.90;;
12129;SDS011;6128;59.340;18.040;2023-07-30T12:11:10;3.25;;;2.83;;
12129;SDS011;6128;59.340;18.040;2023-07-30T12:13:44;2.70;;;2.50;;
12129;SDS011;6128;59.340;18.040;2023-07-30T12:16:12;3.30;;;3.00;;
12129;SDS011;6128;59.340;18.040;2023-07-30T12:18:40;3.15;;;2.92;;
12129;SDS011;6128;59.340;18.040;2023-07-30T12:21:09;3.08;;;2.63;;
12129;SDS011;6128;59.340;18.040;2023-07-30T12:23:37;2.50;;;2.30;;
12129;SDS011;6128;59.340;18.040;2023-07-30T12:26:04;1.95;;;1.65;;
12129;SDS011;6128;59.340;18.040;2023-07-30T12:28:32;1.88;;;1.63;;
12129;SDS011;6128;59.340;18.040;2023-07-30T12:31:01;2.03;;;1.83;;
12129;SDS011;6128;59.340;18.040;2023-07-30T12:33:28;2.72;;;1.55;;
12129;SDS011;6128;59.340;18.040;2023-07-30T12:35:55;3.58;;;1.40;;
12129;SDS011;6128;59.340;18.040;2023-07-30T12:38:22;1.92;;;1.80;;
12129;SDS011;6128;59.340;18.040;2023-07-30T12:40:51;3.92;;;2.72;;
12129;SDS011;6128;59.340;18.040;2023-07-30T12:43:19;3.17;;;2.50;;
12129;SDS011;6128;59.340;18.040;2023-07-30T12:45:47;2.67;;;2.25;;
12129;SDS011;6128;59.340;18.040;2023-07-30T12:48:15;2.93;;;2.63;;
12129;SDS011;6128;59.340;18.040;2023-07-30T12:50:45;3.00;;;2.22;;
12129;SDS011;6128;59.340;18.040;2023-07-30T12:53:13;2.93;;;2.50;;
12129;SDS011;6128;59.340;18.040;2023-07-30T12:55:40;4.73;;;3.27;;
12129;SDS011;6128;59.340;18.040;2023-07-30T12:58:07;5.80;;;3.80;;
12129;SDS011;6128;59.340;18.040;2023-07-30T13:00:34;10.73;;;3.80;;
12129;SDS011;6128;59.340;18.040;2023-07-30T13:03:01;2.63;;;2.33;;
12129;SDS011;6128;59.340;18.040;2023-07-30T13:05:30;4.30;;;3.13;;
12129;SDS011;6128;59.340;18.040;2023-07-30T13:07:58;5.37;;;3.50;;
12129;SDS011;6128;59.340;18.040;2023-07-30T13:10:25;5.13;;;4.10;;
12129;SDS011;6128;59.340;18.040;2023-07-30T13:12:52;8.03;;;5.50;;
12129;SDS011;6128;59.340;18.040;2023-07-30T13:15:20;7.00;;;5.20;;
12129;SDS011;6128;59.340;18.040;2023-07-30T13:17:48;4.67;;;3.97;;
12129;SDS011;6128;59.340;18.040;2023-07-30T13:20:15;6.73;;;4.37;;
12129;SDS011;6128;59.340;18.040;2023-07-30T13:22:43;5.10;;;3.90;;
12129;SDS011;6128;59.340;18.040;2023-07-30T13:25:10;5.27;;;3.80;;
12129;SDS011;6128;59.340;18.040;2023-07-30T13:27:37;5.57;;;4.20;;
12129;SDS011;6128;59.340;18.040;2023-07-30T13:30:05;8.80;;;8.00;;
12129;SDS011;6128;59.340;18.040;2023-07-30T13:32:33;4.43;;;3.97;;
12129;SDS011;6128;59.340;18.040;2023-07-30T13:35:00;5.30;;;3.83;;
12129;SDS011;6128;59.340;18.040;2023-07-30T13:37:27;4.60;;;3.70;;
12129;SDS011;6128;59.340;18.040;2023-07-30T13:39:55;4.93;;;4.13;;
12129;SDS011;6128;59.340;18.040;2023-07-30T13:42:22;3.77;;;3.47;;
12129;SDS011;6128;59.340;18.040;2023-07-30T13:44:50;2.97;;;2.77;;
12129;SDS011;6128;59.340;18.040;2023-07-30T13:47:17;2.70;;;2.50;;
12129;SDS011;6128;59.340;18.040;2023-07-30T13:49:45;3.83;;;2.80;;
12129;SDS011;6128;59.340;18.040;2023-07-30T13:52:12;1.90;;;1.80;;
12129;SDS011;6128;59.340;18.040;2023-07-30T13:54:40;1.70;;;1.60;;
12129;SDS011;6128;59.340;18.040;2023-07-30T13:57:11;1.50;;;1.40;;
12129;SDS011;6128;59.340;18.040;2023-07-30T13:59:38;1.90;;;1.80;;
12129;SDS011;6128;59.340;18.040;2023-07-30T14:02:09;1.40;;;1.20;;
12129;SDS011;6128;59.340;18.040;2023-07-30T14:04:36;1.50;;;1.40;;
12129;SDS011;6128;59.340;18.040;2023-07-30T14:07:03;1.75;;;1.48;;
12129;SDS011;6128;59.340;18.040;2023-07-30T14:09:31;1.63;;;1.40;;
12129;SDS011;6128;59.340;18.040;2023-07-30T14:12:01;1.45;;;1.35;;
12129;SDS011;6128;59.340;18.040;2023-07-30T14:14:30;1.55;;;1.45;;
12129;SDS011;6128;59.340;18.040;2023-07-30T14:16:57;1.40;;;1.30;;
12129;SDS011;6128;59.340;18.040;2023-07-30T14:19:25;1.50;;;1.23;;
12129;SDS011;6128;59.340;18.040;2023-07-30T14:21:53;1.00;;;1.00;;
12129;SDS011;6128;59.340;18.040;2023-07-30T14:24:21;1.00;;;1.00;;
12129;SDS011;6128;59.340;18.040;2023-07-30T14:26:48;1.00;;;1.00;;
12129;SDS011;6128;59.340;18.040;2023-07-30T14:29:15;1.30;;;1.13;;
12129;SDS011;6128;59.340;18.040;2023-07-30T14:31:44;1.30;;;1.20;;
12129;SDS011;6128;59.340;18.040;2023-07-30T14:34:11;1.17;;;1.10;;
12129;SDS011;6128;59.340;18.040;2023-07-30T14:36:38;1.20;;;1.08;;
12129;SDS011;6128;59.340;18.040;2023-07-30T14:39:05;1.60;;;1.50;;
12129;SDS011;6128;59.340;18.040;2023-07-30T14:41:32;1.42;;;1.33;;
12129;SDS011;6128;59.340;18.040;2023-07-30T14:43:59;1.67;;;1.40;;
12129;SDS011;6128;59.340;18.040;2023-07-30T14:46:26;1.75;;;1.30;;
12129;SDS011;6128;59.340;18.040;2023-07-30T14:48:54;1.67;;;1.58;;
12129;SDS011;6128;59.340;18.040;2023-07-30T14:51:22;1.50;;;1.40;;
12129;SDS011;6128;59.340;18.040;2023-07-30T14:53:49;1.55;;;1.45;;
12129;SDS011;6128;59.340;18.040;2023-07-30T14:56:16;2.60;;;1.90;;